createdAt,value
2022-07-29T00:03:35.667Z,101940.63
2022-07-29T00:06:06.922Z,101940.63
2022-07-29T00:14:03.563Z,101935.16
2022-07-29T00:16:36.635Z,101931.66
2022-07-29T00:19:28.858Z,101927.72
2022-07-29T00:21:55.449Z,101925.75
2022-07-29T00:24:25.407Z,101924.59
2022-07-29T00:26:52.003Z,101923.81
2022-07-29T00:29:33.646Z,101917.94
2022-07-29T00:32:01.554Z,101912.88
2022-07-29T00:34:52.883Z,101910.50
2022-07-29T00:37:52.504Z,101896.75
2022-07-29T00:40:19.247Z,101892.47
2022-07-29T00:42:55.700Z,101892.84
2022-07-29T00:45:25.993Z,101900.31
2022-07-29T00:47:55.691Z,101896.00
2022-07-29T00:50:22.440Z,101899.16
2022-07-29T00:52:49.191Z,101894.88
2022-07-29T00:55:18.104Z,101884.25
2022-07-29T00:57:46.148Z,101889.38
2022-07-29T01:00:18.435Z,101889.41
2022-07-29T01:03:19.283Z,101890.19
2022-07-29T01:05:50.223Z,101886.28
2022-07-29T01:08:40.052Z,101882.72
2022-07-29T01:11:06.778Z,101875.66
2022-07-29T01:13:34.296Z,101879.19
2022-07-29T01:16:32.149Z,101876.44
2022-07-29T01:19:23.797Z,101874.09
2022-07-29T01:21:59.046Z,101868.63
2022-07-29T01:28:14.904Z,101876.88
2022-07-29T01:30:43.339Z,101869.81
2022-07-29T01:33:34.709Z,101871.78
2022-07-29T01:36:06.810Z,101868.25
2022-07-29T01:38:35.195Z,101867.88
2022-07-29T01:41:09.925Z,101866.69
2022-07-29T01:43:42.960Z,101873.00
2022-07-29T01:46:15.453Z,101870.25
2022-07-29T01:48:48.262Z,101882.03
2022-07-29T01:51:28.300Z,101876.16
2022-07-29T01:54:11.622Z,101874.19
2022-07-29T01:56:40.022Z,101865.94
2022-07-29T01:59:08.831Z,101867.09
2022-07-29T02:01:40.296Z,101867.91
2022-07-29T02:04:10.832Z,101871.84
2022-07-29T02:06:39.814Z,101869.50
2022-07-29T02:09:08.467Z,101871.84
2022-07-29T02:11:36.854Z,101868.31
2022-07-29T02:14:05.750Z,101867.13
2022-07-29T02:16:34.430Z,101870.66
2022-07-29T02:19:03.874Z,101871.81
2022-07-29T02:21:33.094Z,101870.66
2022-07-29T02:24:02.913Z,101866.72
2022-07-29T02:26:34.082Z,101869.06
2022-07-29T02:29:02.261Z,101861.63
2022-07-29T02:31:33.486Z,101862.81
2022-07-29T02:34:03.047Z,101860.47
2022-07-29T02:36:32.191Z,101865.16
2022-07-29T02:39:01.668Z,101859.66
2022-07-29T02:41:34.245Z,101856.91
2022-07-29T02:44:10.229Z,101853.00
2022-07-29T02:46:38.572Z,101857.72
2022-07-29T02:49:42.536Z,101852.63
2022-07-29T02:52:17.424Z,101849.09
2022-07-29T02:54:52.698Z,101843.59
2022-07-29T02:57:26.565Z,101854.19
2022-07-29T02:59:54.895Z,101861.66
2022-07-29T03:02:22.499Z,101853.03
2022-07-29T03:05:26.215Z,101851.47
2022-07-29T03:07:47.335Z,101852.66
2022-07-29T03:10:18.277Z,101850.69
2022-07-29T03:12:45.323Z,101851.06
2022-07-29T03:15:12.215Z,101846.78
2022-07-29T03:17:40.241Z,101844.78
2022-07-29T03:20:09.051Z,101841.28
2022-07-29T03:22:44.544Z,101849.13
2022-07-29T03:25:12.336Z,101844.41
2022-07-29T03:33:13.473Z,101840.88
2022-07-29T03:35:40.561Z,101828.34
2022-07-29T03:38:10.811Z,101831.88
2022-07-29T03:40:44.246Z,101833.84
2022-07-29T03:43:12.194Z,101830.31
2022-07-29T03:45:52.380Z,101823.63
2022-07-29T03:48:43.465Z,101823.25
2022-07-29T03:51:13.943Z,101828.72
2022-07-29T03:53:40.538Z,101816.97
2022-07-29T03:56:30.232Z,101818.91
2022-07-29T03:58:57.252Z,101815.78
2022-07-29T04:01:25.881Z,101822.84
2022-07-29T04:03:52.746Z,101824.03
2022-07-29T04:06:43.743Z,101821.28
2022-07-29T04:09:11.191Z,101825.22
2022-07-29T04:12:01.795Z,101820.13
2022-07-29T04:14:26.807Z,101815.81
2022-07-29T04:17:15.630Z,101817.00
2022-07-29T04:19:44.906Z,101820.91
2022-07-29T04:22:11.512Z,101824.81
2022-07-29T04:24:38.250Z,101821.69
2022-07-29T04:27:04.790Z,101822.88
2022-07-29T04:29:57.154Z,101819.34
2022-07-29T04:32:25.483Z,101812.28
2022-07-29T04:35:24.854Z,101811.09
2022-07-29T04:37:51.421Z,101817.00
2022-07-29T04:40:18.079Z,101813.06
2022-07-29T04:42:46.899Z,101809.16
2022-07-29T04:45:23.722Z,101813.06
2022-07-29T04:47:51.000Z,101815.81
2022-07-29T04:50:22.186Z,101822.09
2022-07-29T04:52:48.785Z,101826.03
2022-07-29T04:55:15.521Z,101823.66
2022-07-29T04:57:42.066Z,101829.56
2022-07-29T05:00:33.132Z,101826.44
2022-07-29T05:03:01.273Z,101819.38
2022-07-29T05:05:36.531Z,101820.19
2022-07-29T05:08:26.569Z,101818.63
2022-07-29T05:33:08.137Z,101835.44
2022-07-29T05:35:35.896Z,101834.63
2022-07-29T05:38:02.415Z,101840.53
2022-07-29T05:40:28.919Z,101838.94
2022-07-29T05:42:58.968Z,101836.16
2022-07-29T05:45:58.226Z,101837.75
2022-07-29T05:48:51.135Z,101838.88
2022-07-29T05:51:17.789Z,101836.50
2022-07-29T05:53:45.245Z,101845.94
2022-07-29T05:56:12.312Z,101839.66
2022-07-29T05:58:59.470Z,101844.78
2022-07-29T06:10:49.987Z,101847.47
2022-07-29T06:13:17.092Z,101845.91
2022-07-29T06:15:44.153Z,101836.06
2022-07-29T06:18:12.588Z,101854.13
2022-07-29T06:20:40.466Z,101847.00
2022-07-29T06:23:07.060Z,101854.44
2022-07-29T06:32:45.488Z,101885.56
2022-07-29T06:35:38.783Z,101878.91
2022-07-29T06:39:05.126Z,101881.19
2022-07-29T06:42:38.564Z,101877.25
2022-07-29T06:58:21.201Z,101892.19
2022-07-29T07:03:45.492Z,101881.94
2022-07-29T07:06:15.122Z,101879.97
2022-07-29T07:08:42.057Z,101890.84
2022-07-29T07:11:09.195Z,101890.75
2022-07-29T07:13:36.738Z,101892.19
2022-07-29T07:24:03.669Z,101896.50
2022-07-29T07:30:23.969Z,101887.75
2022-07-29T07:47:28.916Z,101872.03
2022-07-29T07:57:39.564Z,101870.34
2022-07-29T08:00:23.055Z,101869.16
2022-07-29T08:03:43.947Z,101864.84
2022-07-29T08:06:38.671Z,101865.56
2022-07-29T08:09:27.789Z,101858.59
2022-07-29T08:12:30.747Z,101859.06
2022-07-29T08:14:57.402Z,101868.94
2022-07-29T08:21:30.255Z,101863.09
2022-07-29T08:24:18.460Z,101865.50
2022-07-29T08:27:42.074Z,101861.53
2022-07-29T08:39:12.855Z,101863.66
2022-07-29T08:41:37.581Z,101866.94
2022-07-29T08:47:14.321Z,101864.69
2022-07-29T09:03:01.880Z,101873.41
2022-07-29T09:11:44.596Z,101871.91
2022-07-29T09:14:13.475Z,101871.69
2022-07-29T09:16:54.589Z,101874.16
2022-07-29T09:19:24.474Z,101874.16
2022-07-29T09:21:58.975Z,101872.53
2022-07-29T09:24:28.122Z,101869.31
2022-07-29T09:27:23.765Z,101872.72
2022-07-29T09:30:25.565Z,101868.97
2022-07-29T09:36:23.370Z,101869.38
2022-07-29T09:39:33.120Z,101871.50
2022-07-29T09:42:34.802Z,101873.75
2022-07-29T09:48:26.785Z,101868.06
2022-07-29T09:52:17.508Z,101857.84
2022-07-29T09:55:40.668Z,101851.88
2022-07-29T09:58:19.131Z,101859.41
2022-07-29T10:00:49.158Z,101853.88
2022-07-29T10:03:44.217Z,101869.88
2022-07-29T10:06:11.797Z,101865.66
2022-07-29T10:08:38.983Z,101871.50
2022-07-29T10:11:17.391Z,101866.16
2022-07-29T10:13:50.230Z,101869.44
2022-07-29T10:16:52.809Z,101867.81
2022-07-29T10:19:25.693Z,101872.38
2022-07-29T10:22:43.349Z,101867.81
2022-07-29T10:25:38.097Z,101878.59
2022-07-29T10:28:20.210Z,101867.09
2022-07-29T10:31:21.470Z,101874.91
2022-07-29T10:34:09.661Z,101867.41
2022-07-29T10:42:44.892Z,101870.09
2022-07-29T10:49:45.701Z,101869.88
2022-07-29T10:52:18.851Z,101868.13
2022-07-29T10:54:48.760Z,101869.81
2022-07-29T10:57:54.270Z,101866.22
2022-07-29T11:00:16.672Z,101870.44
2022-07-29T11:03:10.530Z,101874.69
2022-07-29T11:09:16.743Z,101873.41
2022-07-29T11:15:01.217Z,101867.91
2022-07-29T11:17:28.107Z,101863.00
2022-07-29T11:20:43.634Z,101859.00
2022-07-29T11:27:13.557Z,101863.88
2022-07-29T11:35:17.073Z,101867.69
2022-07-29T11:37:55.445Z,101871.19
2022-07-29T11:40:24.590Z,101864.13
2022-07-29T11:42:52.415Z,101865.78
2022-07-29T11:45:43.712Z,101864.59
2022-07-29T11:59:18.684Z,101857.91
2022-07-29T12:13:07.190Z,101861.69
2022-07-29T12:15:52.941Z,101851.59
2022-07-29T12:18:30.555Z,101862.19
2022-07-29T12:21:30.137Z,101850.34
2022-07-29T12:27:46.957Z,101860.91
2022-07-29T12:30:45.088Z,101864.94
2022-07-29T12:43:58.378Z,101863.47
2022-07-29T12:46:28.973Z,101861.13
2022-07-29T12:48:59.626Z,101858.63
2022-07-29T12:51:53.606Z,101860.47
2022-07-29T12:54:20.158Z,101857.38
2022-07-29T12:56:46.725Z,101854.59
2022-07-29T12:59:17.380Z,101849.63
2022-07-29T13:01:46.817Z,101854.91
2022-07-29T13:04:52.564Z,101849.22
2022-07-29T13:36:52.292Z,101845.72
2022-07-29T13:48:39.945Z,101853.31
2022-07-29T13:52:10.283Z,101847.44
2022-07-29T13:54:42.264Z,101846.03
2022-07-29T14:35:22.462Z,101844.34
2022-07-29T15:07:56.505Z,101843.06
2022-07-29T15:11:05.349Z,101839.81
2022-07-29T15:13:44.461Z,101839.38
2022-07-29T15:17:08.444Z,101848.84
2022-07-29T16:56:58.404Z,101826.84
2022-07-29T17:00:05.949Z,101827.88
2022-07-29T17:20:58.497Z,101841.03
2022-07-29T17:31:45.264Z,101832.41
2022-07-29T17:34:20.535Z,101840.00
2022-07-29T17:44:10.219Z,101848.00
2022-07-29T17:54:51.277Z,101863.41
2022-07-29T18:06:10.601Z,101858.06
2022-07-29T18:08:40.684Z,101853.97
2022-07-29T18:11:39.898Z,101856.84
2022-07-29T18:14:11.089Z,101860.97
2022-07-29T18:17:01.016Z,101865.91
2022-07-29T18:19:29.638Z,101857.66
2022-07-29T18:25:09.444Z,101858.03
2022-07-29T18:27:56.183Z,101854.72
2022-07-29T18:30:26.879Z,101856.91
2022-07-29T18:33:19.137Z,101858.91
2022-07-29T18:35:39.995Z,101862.69
2022-07-29T18:38:06.495Z,101863.78
2022-07-29T18:40:50.256Z,101871.56
2022-07-29T18:43:16.750Z,101863.47
2022-07-29T18:45:43.397Z,101869.56
2022-07-29T18:48:12.928Z,101862.22
2022-07-29T18:50:40.472Z,101868.34
2022-07-29T18:53:07.091Z,101870.34
2022-07-29T18:55:34.871Z,101868.13
2022-07-29T18:58:01.443Z,101873.22
2022-07-29T19:00:28.391Z,101875.91
2022-07-29T19:03:00.368Z,101876.34
2022-07-29T19:06:04.800Z,101878.44
2022-07-29T19:08:44.127Z,101886.19
2022-07-29T19:11:12.846Z,101889.84
2022-07-29T19:13:40.418Z,101894.25
2022-07-29T19:16:07.813Z,101898.00
2022-07-29T19:18:34.440Z,101888.69
2022-07-29T19:21:01.971Z,101901.88
2022-07-29T19:23:28.514Z,101895.63
2022-07-29T19:25:55.269Z,101898.25
2022-07-29T19:28:22.229Z,101908.66
2022-07-29T19:30:52.037Z,101905.88
2022-07-29T19:33:19.071Z,101908.66
2022-07-29T19:35:47.620Z,101913.50
2022-07-29T19:38:15.955Z,101903.03
2022-07-29T19:40:42.760Z,101911.91
2022-07-29T19:43:51.271Z,101924.31
2022-07-29T19:45:56.637Z,101921.28
2022-07-29T19:48:23.278Z,101925.78
2022-07-29T19:50:50.238Z,101935.38
2022-07-29T19:53:17.734Z,101934.25
2022-07-29T19:55:44.211Z,101936.34
2022-07-29T20:01:11.361Z,101938.06
2022-07-29T20:03:44.853Z,101950.41
2022-07-29T20:06:11.476Z,101949.28
2022-07-29T20:08:38.296Z,101949.81
2022-07-29T20:11:07.636Z,101947.97
2022-07-29T20:13:35.283Z,101948.47
2022-07-29T20:16:05.153Z,101942.16
2022-07-29T20:18:31.704Z,101945.78
2022-07-29T20:21:00.357Z,101950.28
2022-07-29T20:23:27.142Z,101956.31
2022-07-29T20:25:54.134Z,101951.56
2022-07-29T20:28:21.775Z,101950.41
2022-07-29T20:30:48.371Z,101955.63
2022-07-29T20:33:16.765Z,101961.63
2022-07-29T20:35:43.799Z,101956.16
2022-07-29T20:38:12.930Z,101965.31
2022-07-29T20:40:41.670Z,101964.25
2022-07-29T20:43:09.250Z,101964.75
2022-07-29T20:45:36.990Z,101967.16
2022-07-29T20:48:04.561Z,101954.16
2022-07-29T20:50:31.179Z,101953.94
2022-07-29T20:52:57.802Z,101956.44
2022-07-29T20:55:30.037Z,101963.66
2022-07-29T20:57:56.548Z,101957.34
2022-07-29T21:00:23.332Z,101966.06
2022-07-29T21:02:50.112Z,101969.69
2022-07-29T21:05:16.766Z,101973.28
2022-07-29T21:07:43.352Z,101965.84
2022-07-29T21:10:10.724Z,101978.09
2022-07-29T21:12:37.298Z,101978.16
2022-07-29T21:15:09.081Z,101979.34
2022-07-29T21:17:38.294Z,101982.25
2022-07-29T21:20:08.438Z,101986.69
2022-07-29T21:22:34.920Z,101982.03
2022-07-29T21:25:02.628Z,101985.25
2022-07-29T21:27:47.730Z,101987.28
2022-07-29T21:30:14.286Z,101984.19
2022-07-29T21:32:42.029Z,101984.72
2022-07-29T21:35:19.129Z,101976.44
2022-07-29T21:37:58.428Z,101979.63
2022-07-29T21:40:24.991Z,101980.81
2022-07-29T21:42:51.517Z,101975.75
2022-07-29T21:45:18.350Z,101978.19
2022-07-29T21:47:47.331Z,101973.50
2022-07-29T21:50:13.896Z,101977.97
2022-07-29T21:52:40.495Z,101974.06
2022-07-29T21:55:08.004Z,101978.03
2022-07-29T21:57:37.170Z,101977.69
2022-07-29T22:00:06.065Z,101967.88
2022-07-29T22:02:32.613Z,101966.31
2022-07-29T22:04:59.300Z,101963.91
2022-07-29T22:07:25.865Z,101963.13
2022-07-29T22:10:12.414Z,101965.16
2022-07-29T22:12:38.942Z,101970.31
2022-07-29T22:15:05.863Z,101954.59
2022-07-29T22:17:32.734Z,101964.50
2022-07-29T22:20:00.624Z,101959.75
2022-07-29T22:22:27.718Z,101962.16
2022-07-29T22:24:55.681Z,101962.16
2022-07-29T22:27:22.627Z,101958.25
2022-07-29T22:29:49.102Z,101949.22
2022-07-29T22:32:15.564Z,101956.84
2022-07-29T22:34:42.356Z,101965.53
2022-07-29T22:37:08.923Z,101964.34
2022-07-29T22:39:35.473Z,101964.38
2022-07-29T22:42:02.026Z,101958.13
2022-07-29T22:44:28.539Z,101963.28
2022-07-29T22:46:55.085Z,101960.16
2022-07-29T22:49:21.664Z,101957.84
2022-07-29T22:51:48.218Z,101957.84
2022-07-29T22:54:15.807Z,101957.50
2022-07-29T22:56:42.534Z,101965.84
2022-07-29T22:59:09.046Z,101967.78
2022-07-29T23:01:37.513Z,101974.91
2022-07-29T23:04:04.726Z,101970.25
2022-07-29T23:06:31.283Z,101966.34
2022-07-29T23:08:57.802Z,101965.22
2022-07-29T23:11:24.243Z,101971.13
2022-07-29T23:13:50.746Z,101971.13
2022-07-29T23:16:26.631Z,101966.06
2022-07-29T23:18:54.043Z,101966.09
2022-07-29T23:21:20.943Z,101969.63
2022-07-29T23:23:49.002Z,101963.34
2022-07-29T23:26:17.023Z,101962.25
2022-07-29T23:28:45.276Z,101965.41
2022-07-29T23:31:13.445Z,101962.28
2022-07-29T23:33:40.914Z,101970.59
2022-07-29T23:36:07.452Z,101966.28
2022-07-29T23:38:33.946Z,101963.94
2022-07-29T23:41:02.274Z,101963.59
2022-07-29T23:43:28.955Z,101966.09
2022-07-29T23:45:56.011Z,101964.97
2022-07-29T23:48:24.865Z,101963.41
2022-07-29T23:50:51.372Z,101961.88
2022-07-29T23:53:17.913Z,101961.50
2022-07-29T23:55:44.892Z,101965.88
2022-07-29T23:58:11.428Z,101963.50
